Tuscarora, Pennsylvania
Current Conditions -  °F | °C
As of 5:35 AM on Friday 24 Oct 2014 (Local Time) from KHZL Reporting Station
Overcast Overcast  
Wind Chill: 50°   Ceiling: 1700
Heat Index: 50°   Visibility: 10mi
Dew Point: 43°   Wind: 18mph
Humidity: 76%   Direction: 300°WNW
Pressure: 29.9"   Gusts: 24mph
Location:  40.76°N, 76.06°W
Report Text: KHZL 240935Z AUTO 30016G21KT 10SM OVC017 10/06 A2990 RMK AO2
Loading
Personal Weather Stations






























Interactive Weather Map
Tropical Storm Tracking
New forecast layout! Learn more

10-Day Weather Forecast

Advertisements
Track Severe Weather on mobile